createdAt,value
2023-04-10T00:09:16.872Z,16.20
2023-04-10T00:19:24.783Z,20.00
2023-04-10T00:29:31.518Z,17.97
2023-04-10T00:39:36.145Z,16.97
2023-04-10T00:49:41.667Z,16.33
2023-04-10T00:59:44.355Z,18.07
2023-04-10T01:10:00.566Z,18.60
2023-04-10T01:20:23.256Z,19.73
2023-04-10T01:30:25.580Z,16.37
2023-04-10T01:40:33.243Z,20.83
2023-04-10T01:50:36.292Z,19.20
2023-04-10T02:00:43.386Z,15.60
2023-04-10T02:11:16.184Z,14.03
2023-04-10T02:21:18.378Z,16.03
2023-04-10T02:31:25.007Z,15.07
2023-04-10T02:41:30.053Z,16.53
2023-04-10T02:51:38.131Z,17.63
2023-04-10T03:01:42.438Z,16.37
2023-04-10T03:11:44.687Z,16.03
2023-04-10T03:21:49.215Z,15.80
2023-04-10T03:31:56.474Z,17.53
2023-04-10T03:42:02.305Z,14.67
2023-04-10T03:52:05.560Z,14.97
2023-04-10T04:02:11.635Z,15.40
2023-04-10T04:12:19.839Z,14.03
2023-04-10T04:22:22.018Z,15.57
2023-04-10T04:32:46.619Z,13.70
2023-04-10T04:43:09.100Z,10.80
2023-04-10T04:53:28.530Z,12.25
2023-04-10T05:03:57.787Z,12.63
2023-04-10T05:14:33.759Z,12.57
2023-04-10T05:24:55.938Z,11.88
2023-04-10T05:35:11.027Z,10.50
2023-04-10T05:45:22.346Z,11.33
2023-04-10T05:55:54.820Z,8.65
2023-04-10T06:06:18.324Z,10.43
2023-04-10T06:16:26.998Z,13.27
2023-04-10T06:26:30.385Z,12.45
2023-04-10T06:36:35.316Z,12.45
2023-04-10T06:46:40.848Z,12.13
2023-04-10T06:56:46.244Z,10.93
2023-04-10T07:06:51.395Z,11.52
2023-04-10T07:16:56.058Z,9.13
2023-04-10T07:27:01.917Z,9.27
2023-04-10T07:37:04.148Z,9.38
2023-04-10T07:47:08.346Z,11.05
2023-04-10T07:57:10.621Z,9.55
2023-04-10T08:07:12.992Z,10.38
2023-04-10T08:17:15.578Z,9.27
2023-04-10T08:27:21.580Z,9.40
2023-04-10T08:37:26.688Z,7.22
2023-04-10T08:47:30.338Z,6.88
2023-04-10T08:57:33.834Z,5.43
2023-04-10T09:07:39.273Z,5.75
2023-04-10T09:18:04.936Z,6.00
2023-04-10T09:28:08.904Z,5.35
2023-04-10T09:38:17.457Z,7.13
2023-04-10T09:48:23.531Z,5.57
2023-04-10T09:58:29.708Z,5.07
2023-04-10T10:08:33.375Z,6.15
2023-04-10T10:18:51.127Z,4.78
2023-04-10T10:28:54.328Z,6.28
2023-04-10T10:39:27.957Z,5.10
2023-04-10T10:50:16.118Z,4.88
2023-04-10T11:00:22.351Z,5.03
2023-04-10T11:11:05.057Z,4.03
2023-04-10T11:21:19.313Z,3.85
2023-04-10T11:31:23.626Z,10.05
2023-04-10T11:41:33.720Z,3.08
2023-04-10T11:51:37.758Z,4.30
2023-04-10T12:01:46.747Z,3.60
2023-04-10T12:12:04.280Z,3.40
2023-04-10T12:22:12.295Z,5.63
2023-04-10T12:32:19.188Z,4.05
2023-04-10T12:42:23.499Z,3.58
2023-04-10T12:52:28.233Z,4.65
2023-04-10T13:02:34.295Z,5.65
2023-04-10T13:12:38.258Z,4.03
2023-04-10T13:22:43.653Z,5.03
2023-04-10T13:32:52.326Z,5.82
2023-04-10T13:42:54.710Z,3.40
2023-04-10T13:52:59.080Z,5.40
2023-04-10T14:03:11.273Z,4.70
2023-04-10T14:13:14.782Z,5.95
2023-04-10T14:23:24.061Z,3.92
2023-04-10T14:33:31.247Z,7.57
2023-04-10T14:43:35.607Z,8.20
2023-04-10T14:53:40.613Z,5.60
2023-04-10T15:03:49.349Z,4.00
2023-04-10T15:13:54.078Z,5.03
2023-04-10T15:23:59.184Z,3.53
2023-04-10T15:34:03.618Z,3.95
2023-04-10T15:44:05.957Z,3.90
2023-04-10T15:54:11.293Z,5.22
2023-04-10T16:04:16.803Z,4.60
2023-04-10T16:14:19.295Z,4.35
2023-04-10T16:24:24.327Z,3.42
2023-04-10T16:34:29.001Z,5.38
2023-04-10T16:44:32.441Z,3.67
2023-04-10T16:54:34.950Z,4.38
2023-04-10T17:04:41.571Z,4.32
2023-04-10T17:14:48.822Z,6.47
2023-04-10T17:24:51.031Z,3.95
2023-04-10T17:34:53.260Z,7.00
2023-04-10T17:44:58.042Z,5.60
2023-04-10T17:55:02.337Z,9.95
2023-04-10T18:05:09.684Z,8.15
2023-04-10T18:15:12.050Z,7.85
2023-04-10T18:25:17.053Z,8.05
2023-04-10T18:35:24.453Z,9.57
2023-04-10T18:45:28.976Z,10.63
2023-04-10T18:55:34.352Z,10.50
2023-04-10T19:05:39.875Z,10.23
2023-04-10T19:15:46.569Z,13.43
2023-04-10T19:25:58.824Z,14.23
2023-04-10T19:36:01.115Z,13.27
2023-04-10T19:46:04.415Z,12.50
2023-04-10T19:56:07.000Z,14.02
2023-04-10T20:06:14.402Z,15.38
2023-04-10T20:16:18.905Z,15.70
2023-04-10T20:26:26.271Z,17.83
2023-04-10T20:36:36.891Z,18.75
2023-04-10T20:46:42.868Z,13.38
2023-04-10T20:56:50.350Z,11.73
2023-04-10T21:06:53.993Z,10.45
2023-04-10T21:17:00.809Z,8.85
2023-04-10T21:27:06.207Z,13.50
2023-04-10T21:37:10.322Z,11.63
2023-04-10T21:47:14.983Z,8.15
2023-04-10T21:57:18.603Z,10.15
2023-04-10T22:07:26.260Z,12.77
2023-04-10T22:17:32.641Z,12.85
2023-04-10T22:27:36.494Z,13.30
2023-04-10T22:37:38.730Z,11.48
2023-04-10T22:47:40.865Z,12.15
2023-04-10T22:57:52.104Z,12.85
2023-04-10T23:07:58.443Z,14.68
2023-04-10T23:18:05.809Z,16.75
2023-04-10T23:28:08.043Z,14.75
2023-04-10T23:38:10.593Z,14.73
2023-04-10T23:48:18.358Z,16.17
2023-04-10T23:58:21.572Z,15.35
